<?xml version="1.0" encoding="UTF-8" standalone="no" ?>
<gpx xmlns="http://www.topografix.com/GPX/1/1" xmlns:xsi="http://www.w3.org/2001/XMLSchema-instance" xsi:schemaLocation="http://www.topografix.com/GPX/1/1 http://www.topografix.com/GPX/1/1/gpx.xsd" version="1.1" creator="VisuGPX - https://www.visugpx.com">
  <metadata>
    <name>VacancesDricouZoe</name>
  </metadata>
  <trk>
    <name><![CDATA[Journal actif: 2021-07-07 11:47]]></name>
    <trkseg>
      <trkpt lat="43.65684" lon="-1.42724">
        <ele>-5.15</ele>
        <time>2021-07-07T13:47:19Z</time>
      </trkpt>
      <trkpt lat="43.65663" lon="-1.42724">
        <ele>-4.67</ele>
        <time>2021-07-07T13:47:50Z</time>
      </trkpt>
      <trkpt lat="43.65659" lon="-1.42724">
        <ele>-5.15</ele>
        <time>2021-07-07T13:47:51Z</time>
      </trkpt>
      <trkpt lat="43.65655" lon="-1.42724">
        <ele>-5.15</ele>
        <time>2021-07-07T13:47:52Z</time>
      </trkpt>
      <trkpt lat="43.65593" lon="-1.42724">
        <ele>-4.67</ele>
        <time>2021-07-07T13:48:05Z</time>
      </trkpt>
      <trkpt lat="43.65496" lon="-1.42723">
        <ele>-5.63</ele>
        <time>2021-07-07T13:48:22Z</time>
      </trkpt>
      <trkpt lat="43.6537" lon="-1.42722">
        <ele>-5.63</ele>
        <time>2021-07-07T13:48:39Z</time>
      </trkpt>
      <trkpt lat="43.65356" lon="-1.42722">
        <ele>-5.15</ele>
        <time>2021-07-07T13:48:48Z</time>
      </trkpt>
      <trkpt lat="43.65335" lon="-1.42734">
        <ele>-5.15</ele>
        <time>2021-07-07T13:48:56Z</time>
      </trkpt>
      <trkpt lat="43.65311" lon="-1.42722">
        <ele>-5.63</ele>
        <time>2021-07-07T13:49:04Z</time>
      </trkpt>
      <trkpt lat="43.65307" lon="-1.42722">
        <ele>-5.63</ele>
        <time>2021-07-07T13:49:05Z</time>
      </trkpt>
      <trkpt lat="43.65229" lon="-1.42723">
        <ele>-5.15</ele>
        <time>2021-07-07T13:49:16Z</time>
      </trkpt>
      <trkpt lat="43.65188" lon="-1.42723">
        <ele>-4.67</ele>
        <time>2021-07-07T13:49:21Z</time>
      </trkpt>
      <trkpt lat="43.65188" lon="-1.42723">
        <ele>-4.67</ele>
        <time>2021-07-07T13:49:22Z</time>
      </trkpt>
      <trkpt lat="43.65184" lon="-1.42723">
        <ele>-4.67</ele>
        <time>2021-07-07T13:49:23Z</time>
      </trkpt>
      <trkpt lat="43.65179" lon="-1.42724">
        <ele>-4.19</ele>
        <time>2021-07-07T13:49:24Z</time>
      </trkpt>
      <trkpt lat="43.65171" lon="-1.42734">
        <ele>-4.19</ele>
        <time>2021-07-07T13:49:25Z</time>
      </trkpt>
      <trkpt lat="43.65171" lon="-1.42734">
        <ele>-4.19</ele>
        <time>2021-07-07T13:49:26Z</time>
      </trkpt>
      <trkpt lat="43.65165" lon="-1.42738">
        <ele>-4.19</ele>
        <time>2021-07-07T13:49:27Z</time>
      </trkpt>
      <trkpt lat="43.6516" lon="-1.42737">
        <ele>-4.19</ele>
        <time>2021-07-07T13:49:28Z</time>
      </trkpt>
      <trkpt lat="43.65156" lon="-1.42737">
        <ele>-4.19</ele>
        <time>2021-07-07T13:49:29Z</time>
      </trkpt>
      <trkpt lat="43.65146" lon="-1.42721">
        <ele>-4.19</ele>
        <time>2021-07-07T13:49:30Z</time>
      </trkpt>
      <trkpt lat="43.6514" lon="-1.42722">
        <ele>-4.19</ele>
        <time>2021-07-07T13:49:31Z</time>
      </trkpt>
      <trkpt lat="43.65133" lon="-1.42722">
        <ele>-3.71</ele>
        <time>2021-07-07T13:49:32Z</time>
      </trkpt>
      <trkpt lat="43.65133" lon="-1.42722">
        <ele>-4.19</ele>
        <time>2021-07-07T13:49:33Z</time>
      </trkpt>
      <trkpt lat="43.65015" lon="-1.42722">
        <ele>-3.23</ele>
        <time>2021-07-07T13:49:48Z</time>
      </trkpt>
      <trkpt lat="43.64856" lon="-1.42723">
        <ele>-2.27</ele>
        <time>2021-07-07T13:50:04Z</time>
      </trkpt>
      <trkpt lat="43.64659" lon="-1.42725">
        <ele>0.14</ele>
        <time>2021-07-07T13:50:23Z</time>
      </trkpt>
      <trkpt lat="43.64594" lon="-1.42718">
        <ele>0.14</ele>
        <time>2021-07-07T13:50:33Z</time>
      </trkpt>
      <trkpt lat="43.64575" lon="-1.42721">
        <ele>-0.82</ele>
        <time>2021-07-07T13:50:40Z</time>
      </trkpt>
      <trkpt lat="43.64573" lon="-1.42723">
        <ele>-0.82</ele>
        <time>2021-07-07T13:50:41Z</time>
      </trkpt>
      <trkpt lat="43.6457" lon="-1.42729">
        <ele>-0.82</ele>
        <time>2021-07-07T13:50:42Z</time>
      </trkpt>
      <trkpt lat="43.64579" lon="-1.42799">
        <ele>0.14</ele>
        <time>2021-07-07T13:50:53Z</time>
      </trkpt>
      <trkpt lat="43.64588" lon="-1.42872">
        <ele>0.62</ele>
        <time>2021-07-07T13:51:04Z</time>
      </trkpt>
      <trkpt lat="43.64593" lon="-1.4291">
        <ele>1.1</ele>
        <time>2021-07-07T13:51:10Z</time>
      </trkpt>
      <trkpt lat="43.64602" lon="-1.42982">
        <ele>1.1</ele>
        <time>2021-07-07T13:51:22Z</time>
      </trkpt>
      <trkpt lat="43.64613" lon="-1.43101">
        <ele>2.06</ele>
        <time>2021-07-07T13:51:36Z</time>
      </trkpt>
      <trkpt lat="43.64615" lon="-1.43122">
        <ele>2.06</ele>
        <time>2021-07-07T13:51:44Z</time>
      </trkpt>
      <trkpt lat="43.64618" lon="-1.43154">
        <ele>2.06</ele>
        <time>2021-07-07T13:51:53Z</time>
      </trkpt>
      <trkpt lat="43.64619" lon="-1.43163">
        <ele>2.06</ele>
        <time>2021-07-07T13:51:55Z</time>
      </trkpt>
      <trkpt lat="43.64616" lon="-1.43165">
        <ele>2.06</ele>
        <time>2021-07-07T13:51:56Z</time>
      </trkpt>
      <trkpt lat="43.64616" lon="-1.43165">
        <ele>1.58</ele>
        <time>2021-07-07T13:51:57Z</time>
      </trkpt>
      <trkpt lat="43.64608" lon="-1.43167">
        <ele>1.1</ele>
        <time>2021-07-07T13:51:58Z</time>
      </trkpt>
      <trkpt lat="43.64604" lon="-1.43168">
        <ele>1.1</ele>
        <time>2021-07-07T13:51:59Z</time>
      </trkpt>
      <trkpt lat="43.64552" lon="-1.43184">
        <ele>1.1</ele>
        <time>2021-07-07T13:52:08Z</time>
      </trkpt>
      <trkpt lat="43.6449" lon="-1.43221">
        <ele>-0.82</ele>
        <time>2021-07-07T13:52:20Z</time>
      </trkpt>
      <trkpt lat="43.64458" lon="-1.43236">
        <ele>-1.3</ele>
        <time>2021-07-07T13:52:32Z</time>
      </trkpt>
      <trkpt lat="43.64434" lon="-1.43245">
        <ele>-1.79</ele>
        <time>2021-07-07T13:52:50Z</time>
      </trkpt>
      <trkpt lat="43.64414" lon="-1.43251">
        <ele>-1.79</ele>
        <time>2021-07-07T13:52:56Z</time>
      </trkpt>
      <trkpt lat="43.6441" lon="-1.43253">
        <ele>-1.79</ele>
        <time>2021-07-07T13:52:57Z</time>
      </trkpt>
      <trkpt lat="43.64407" lon="-1.43262">
        <ele>-1.79</ele>
        <time>2021-07-07T13:52:58Z</time>
      </trkpt>
      <trkpt lat="43.64408" lon="-1.43267">
        <ele>-1.79</ele>
        <time>2021-07-07T13:52:59Z</time>
      </trkpt>
      <trkpt lat="43.64408" lon="-1.43273">
        <ele>-1.79</ele>
        <time>2021-07-07T13:53:00Z</time>
      </trkpt>
      <trkpt lat="43.64408" lon="-1.43279">
        <ele>-1.79</ele>
        <time>2021-07-07T13:53:01Z</time>
      </trkpt>
      <trkpt lat="43.6442" lon="-1.43372">
        <ele>-1.79</ele>
        <time>2021-07-07T13:53:15Z</time>
      </trkpt>
      <trkpt lat="43.64424" lon="-1.43386">
        <ele>-2.75</ele>
        <time>2021-07-07T13:53:18Z</time>
      </trkpt>
      <trkpt lat="43.64426" lon="-1.43392">
        <ele>-2.27</ele>
        <time>2021-07-07T13:53:19Z</time>
      </trkpt>
      <trkpt lat="43.6443" lon="-1.43398">
        <ele>-2.27</ele>
        <time>2021-07-07T13:53:20Z</time>
      </trkpt>
      <trkpt lat="43.64433" lon="-1.43403">
        <ele>-2.27</ele>
        <time>2021-07-07T13:53:21Z</time>
      </trkpt>
      <trkpt lat="43.64436" lon="-1.43409">
        <ele>-2.27</ele>
        <time>2021-07-07T13:53:22Z</time>
      </trkpt>
      <trkpt lat="43.6444" lon="-1.43413">
        <ele>-2.27</ele>
        <time>2021-07-07T13:53:23Z</time>
      </trkpt>
      <trkpt lat="43.64444" lon="-1.43416">
        <ele>-2.75</ele>
        <time>2021-07-07T13:53:24Z</time>
      </trkpt>
      <trkpt lat="43.64449" lon="-1.4342">
        <ele>-2.75</ele>
        <time>2021-07-07T13:53:25Z</time>
      </trkpt>
      <trkpt lat="43.64455" lon="-1.43422">
        <ele>-2.75</ele>
        <time>2021-07-07T13:53:26Z</time>
      </trkpt>
      <trkpt lat="43.64551" lon="-1.43449">
        <ele>-3.23</ele>
        <time>2021-07-07T13:53:42Z</time>
      </trkpt>
      <trkpt lat="43.64637" lon="-1.43482">
        <ele>-4.19</ele>
        <time>2021-07-07T13:53:56Z</time>
      </trkpt>
      <trkpt lat="43.64741" lon="-1.43523">
        <ele>-5.15</ele>
        <time>2021-07-07T13:54:12Z</time>
      </trkpt>
      <trkpt lat="43.64843" lon="-1.43558">
        <ele>-5.63</ele>
        <time>2021-07-07T13:54:28Z</time>
      </trkpt>
      <trkpt lat="43.64869" lon="-1.43564">
        <ele>-4.19</ele>
        <time>2021-07-07T13:54:34Z</time>
      </trkpt>
      <trkpt lat="43.64877" lon="-1.4356">
        <ele>-4.19</ele>
        <time>2021-07-07T13:54:37Z</time>
      </trkpt>
      <trkpt lat="43.64878" lon="-1.43562">
        <ele>-4.19</ele>
        <time>2021-07-07T13:54:38Z</time>
      </trkpt>
      <trkpt lat="43.6488" lon="-1.43565">
        <ele>-4.19</ele>
        <time>2021-07-07T13:54:39Z</time>
      </trkpt>
      <trkpt lat="43.64891" lon="-1.43572">
        <ele>-3.71</ele>
        <time>2021-07-07T13:54:42Z</time>
      </trkpt>
      <trkpt lat="43.64895" lon="-1.43573">
        <ele>-3.71</ele>
        <time>2021-07-07T13:54:43Z</time>
      </trkpt>
      <trkpt lat="43.64976" lon="-1.43603">
        <ele>-4.67</ele>
        <time>2021-07-07T13:55:00Z</time>
      </trkpt>
      <trkpt lat="43.65078" lon="-1.43636">
        <ele>-6.59</ele>
        <time>2021-07-07T13:55:17Z</time>
      </trkpt>
      <trkpt lat="43.6519" lon="-1.43679">
        <ele>-6.59</ele>
        <time>2021-07-07T13:55:33Z</time>
      </trkpt>
      <trkpt lat="43.65222" lon="-1.43699">
        <ele>-6.59</ele>
        <time>2021-07-07T13:55:40Z</time>
      </trkpt>
      <trkpt lat="43.65274" lon="-1.43804">
        <ele>-3.71</ele>
        <time>2021-07-07T13:55:54Z</time>
      </trkpt>
      <trkpt lat="43.65323" lon="-1.43927">
        <ele>-1.79</ele>
        <time>2021-07-07T13:56:12Z</time>
      </trkpt>
      <trkpt lat="43.65353" lon="-1.44004">
        <ele>-0.82</ele>
        <time>2021-07-07T13:56:27Z</time>
      </trkpt>
      <trkpt lat="43.65358" lon="-1.44016">
        <ele>-0.34</ele>
        <time>2021-07-07T13:56:39Z</time>
      </trkpt>
      <trkpt lat="43.65369" lon="-1.44044">
        <ele>0.14</ele>
        <time>2021-07-07T13:56:52Z</time>
      </trkpt>
      <trkpt lat="43.65389" lon="-1.44096">
        <ele>0.14</ele>
        <time>2021-07-07T13:57:02Z</time>
      </trkpt>
      <trkpt lat="43.6543" lon="-1.44217">
        <ele>0.14</ele>
        <time>2021-07-07T13:57:18Z</time>
      </trkpt>
      <trkpt lat="43.6545" lon="-1.44318">
        <ele>1.1</ele>
        <time>2021-07-07T13:57:33Z</time>
      </trkpt>
      <trkpt lat="43.65451" lon="-1.44324">
        <ele>1.58</ele>
        <time>2021-07-07T13:57:35Z</time>
      </trkpt>
      <trkpt lat="43.65452" lon="-1.44327">
        <ele>1.58</ele>
        <time>2021-07-07T13:57:36Z</time>
      </trkpt>
      <trkpt lat="43.6545" lon="-1.44327">
        <ele>1.58</ele>
        <time>2021-07-07T13:57:37Z</time>
      </trkpt>
      <trkpt lat="43.65447" lon="-1.44329">
        <ele>1.58</ele>
        <time>2021-07-07T13:57:38Z</time>
      </trkpt>
      <trkpt lat="43.65444" lon="-1.4433">
        <ele>1.58</ele>
        <time>2021-07-07T13:57:39Z</time>
      </trkpt>
      <trkpt lat="43.65397" lon="-1.44347">
        <ele>2.06</ele>
        <time>2021-07-07T13:57:51Z</time>
      </trkpt>
      <trkpt lat="43.65374" lon="-1.4437">
        <ele>1.58</ele>
        <time>2021-07-07T13:58:03Z</time>
      </trkpt>
      <trkpt lat="43.65337" lon="-1.44407">
        <ele>2.06</ele>
        <time>2021-07-07T13:58:18Z</time>
      </trkpt>
      <trkpt lat="43.65337" lon="-1.44407">
        <ele>1.58</ele>
        <time>2021-07-07T13:58:23Z</time>
      </trkpt>
      <trkpt lat="43.65335" lon="-1.44409">
        <ele>1.58</ele>
        <time>2021-07-07T13:58:24Z</time>
      </trkpt>
      <trkpt lat="43.65331" lon="-1.44408">
        <ele>1.58</ele>
        <time>2021-07-07T13:58:25Z</time>
      </trkpt>
      <trkpt lat="43.6533" lon="-1.44405">
        <ele>1.58</ele>
        <time>2021-07-07T13:58:26Z</time>
      </trkpt>
      <trkpt lat="43.6533" lon="-1.44402">
        <ele>1.58</ele>
        <time>2021-07-07T13:58:27Z</time>
      </trkpt>
      <trkpt lat="43.65329" lon="-1.444">
        <ele>1.1</ele>
        <time>2021-07-07T13:58:28Z</time>
      </trkpt>
      <trkpt lat="43.65329" lon="-1.44398">
        <ele>1.1</ele>
        <time>2021-07-07T13:58:29Z</time>
      </trkpt>
      <trkpt lat="43.65329" lon="-1.44397">
        <ele>0.62</ele>
        <time>2021-07-07T13:58:46Z</time>
      </trkpt>
      <trkpt lat="43.65329" lon="-1.44397">
        <ele>0.62</ele>
        <time>2021-07-07T14:01:24Z</time>
      </trkpt>
      <trkpt lat="43.65329" lon="-1.44397">
        <ele>0.62</ele>
        <time>2021-07-07T14:04:55Z</time>
      </trkpt>
    </trkseg>
  </trk>
</gpx>